Time;durP1;ratioP1;P1;durP2;ratioP2;P2;SDS_P1;SDS_P2;PMS_P1;PMS_P2;Temp;Humidity;BMP_temperature;BMP_pressure;BME280_temperature;BME280_humidity;BME280_pressure;Samples;Min_cycle;Max_cycle;Signal;HPM_P1;HPM_P2
2023/07/12 00:01:03;;;;;;;14.63;12.13;;;20.60;99.90;;;;;;5054271;28;20468;-65
2023/07/12 00:03:32;;;;;;;18.90;13.77;;;20.60;99.90;;;;;;5036348;28;20063;-65
2023/07/12 00:05:58;;;;;;;20.05;13.45;;;20.50;99.90;;;;;;5054083;28;20037;-64
2023/07/12 00:08:26;;;;;;;17.38;12.82;;;20.50;99.90;;;;;;5054449;28;20159;-65
2023/07/12 00:10:55;;;;;;;17.88;13.00;;;20.50;99.90;;;;;;5054355;28;20029;-65
2023/07/12 00:13:23;;;;;;;17.08;13.52;;;20.50;99.90;;;;;;5054519;28;20040;-65
2023/07/12 00:15:49;;;;;;;20.38;14.20;;;20.50;99.90;;;;;;5054379;28;20429;-65
2023/07/12 00:18:24;;;;;;;17.23;13.65;;;20.50;99.90;;;;;;5054413;28;20056;-65
2023/07/12 00:20:51;;;;;;;18.45;14.00;;;20.50;99.90;;;;;;5054300;28;20478;-65
2023/07/12 00:23:18;;;;;;;17.90;13.13;;;20.50;99.90;;;;;;5054228;28;20525;-65
2023/07/12 00:25:47;;;;;;;16.55;12.65;;;20.50;99.90;;;;;;5054288;28;20471;-65
2023/07/12 00:28:26;;;;;;;16.30;12.82;;;20.50;99.90;;;;;;5054210;28;20056;-65
2023/07/12 00:30:55;;;;;;;18.23;13.35;;;20.50;99.90;;;;;;5054245;28;20036;-65
2023/07/12 00:33:21;;;;;;;19.65;14.55;;;20.40;99.90;;;;;;5054277;28;20032;-65
2023/07/12 00:35:48;;;;;;;17.25;12.95;;;20.40;99.90;;;;;;5054266;28;20033;-65
2023/07/12 00:38:25;;;;;;;16.05;12.70;;;20.40;99.90;;;;;;5054715;28;20067;-65
2023/07/12 00:41:09;;;;;;;13.57;12.07;;;20.40;99.90;;;;;;5036207;28;20025;-65
2023/07/12 00:43:54;;;;;;;15.50;12.68;;;20.40;99.90;;;;;;5054121;28;20067;-65
2023/07/12 00:46:53;;;;;;;19.95;13.43;;;20.30;99.90;;;;;;5054112;28;20570;-65
2023/07/12 00:49:19;;;;;;;17.70;13.05;;;20.30;99.90;;;;;;4983590;28;20457;-65
2023/07/12 00:52:11;;;;;;;17.65;12.95;;;20.30;99.90;;;;;;5053987;28;20036;-65
2023/07/12 00:54:58;;;;;;;18.15;12.77;;;20.30;99.90;;;;;;5036145;28;20037;-65
2023/07/12 00:57:26;;;;;;;15.65;12.70;;;20.30;99.90;;;;;;5035964;28;20472;-65
2023/07/12 00:59:56;;;;;;;17.70;12.98;;;20.30;99.90;;;;;;5036287;28;20087;-65
2023/07/12 01:02:25;;;;;;;17.55;12.55;;;20.20;99.90;;;;;;5036017;28;20055;-64
2023/07/12 01:04:57;;;;;;;15.98;12.60;;;20.20;99.90;;;;;;5036409;28;20474;-65
2023/07/12 01:07:23;;;;;;;18.08;13.43;;;20.20;99.90;;;;;;5036328;28;20025;-65
2023/07/12 01:09:49;;;;;;;16.70;13.15;;;20.20;99.90;;;;;;5053976;28;20028;-65
2023/07/12 01:12:15;;;;;;;20.02;13.23;;;20.20;99.90;;;;;;5053885;28;20021;-65
2023/07/12 01:14:43;;;;;;;19.83;13.57;;;20.10;99.90;;;;;;5054018;28;20383;-65
2023/07/12 01:17:08;;;;;;;16.45;13.38;;;20.10;99.90;;;;;;5039228;28;20037;-65
2023/07/12 01:19:37;;;;;;;18.83;13.45;;;20.10;99.90;;;;;;5057757;28;20035;-65
2023/07/12 01:22:04;;;;;;;17.50;12.85;;;20.10;99.90;;;;;;5057604;28;20033;-65
2023/07/12 01:24:33;;;;;;;16.80;13.02;;;20.10;99.90;;;;;;5023575;28;20067;-65
2023/07/12 01:27:10;;;;;;;17.33;13.05;;;20.10;99.90;;;;;;5057527;28;20382;-65
2023/07/12 01:29:36;;;;;;;16.30;13.70;;;20.00;99.90;;;;;;5057369;28;20029;-65
2023/07/12 01:32:02;;;;;;;17.75;13.48;;;20.00;99.90;;;;;;5039672;28;20029;-65
2023/07/12 01:34:29;;;;;;;18.05;13.43;;;19.90;99.90;;;;;;5057358;28;20025;-65
2023/07/12 01:36:55;;;;;;;16.83;12.85;;;19.90;99.90;;;;;;5057321;28;20028;-65
2023/07/12 01:39:22;;;;;;;17.08;13.05;;;19.90;99.90;;;;;;5039375;28;20063;-65
2023/07/12 01:41:48;;;;;;;20.00;13.50;;;19.90;99.90;;;;;;5057209;28;20028;-65
2023/07/12 01:44:14;;;;;;;14.73;12.55;;;19.90;99.90;;;;;;5057110;28;20037;-65
2023/07/12 01:46:40;;;;;;;17.13;12.95;;;19.80;99.90;;;;;;5022762;28;20044;-65
2023/07/12 01:49:06;;;;;;;18.80;12.43;;;19.80;99.90;;;;;;5057121;28;20392;-65
2023/07/12 01:51:33;;;;;;;19.10;12.85;;;19.80;99.90;;;;;;5057000;28;20028;-65
2023/07/12 01:53:59;;;;;;;21.83;13.45;;;19.80;99.90;;;;;;5057077;28;20426;-65
2023/07/12 01:56:25;;;;;;;16.23;12.98;;;19.70;99.90;;;;;;5053832;28;20055;-65
2023/07/12 01:58:51;;;;;;;17.38;12.68;;;19.70;99.90;;;;;;5058788;28;20108;-65
2023/07/12 02:01:17;;;;;;;15.93;13.05;;;19.70;99.90;;;;;;5059013;28;20105;-65
2023/07/12 02:03:43;;;;;;;22.35;12.77;;;19.60;99.90;;;;;;5076857;28;20025;-65
2023/07/12 02:06:09;;;;;;;19.15;13.25;;;19.60;99.90;;;;;;5076954;28;20036;-65
2023/07/12 02:08:35;;;;;;;17.75;13.63;;;19.60;99.90;;;;;;5076768;28;20021;-65
2023/07/12 02:11:00;;;;;;;18.88;13.13;;;19.60;99.90;;;;;;5076496;28;20028;-65
2023/07/12 02:13:28;;;;;;;22.95;14.27;;;19.60;99.90;;;;;;5076566;28;20033;-65
2023/07/12 02:15:54;;;;;;;17.90;14.23;;;19.60;99.90;;;;;;5058531;28;20033;-65
2023/07/12 02:18:21;;;;;;;16.52;13.15;;;19.50;99.90;;;;;;5058639;28;20036;-65
2023/07/12 02:20:47;;;;;;;15.93;12.02;;;19.50;99.90;;;;;;5076332;28;20318;-65
2023/07/12 02:23:12;;;;;;;17.42;13.65;;;19.40;99.90;;;;;;5076401;28;20081;-65
2023/07/12 02:25:40;;;;;;;15.13;12.73;;;19.40;99.90;;;;;;5076306;28;20036;-65
2023/07/12 02:28:06;;;;;;;14.35;12.95;;;19.30;99.90;;;;;;5057479;28;20138;-65
2023/07/12 02:30:33;;;;;;;17.30;13.52;;;19.30;99.90;;;;;;5076245;28;20039;-65
2023/07/12 02:32:59;;;;;;;15.85;13.02;;;19.30;99.90;;;;;;5076263;28;20058;-65
2023/07/12 02:35:29;;;;;;;17.70;12.98;;;19.20;99.90;;;;;;5058210;28;20036;-65
2023/07/12 02:37:56;;;;;;;14.43;12.93;;;19.10;99.90;;;;;;5076204;28;20458;-65
2023/07/12 02:40:24;;;;;;;16.98;13.07;;;19.10;99.90;;;;;;5075980;28;20263;-65
2023/07/12 02:42:50;;;;;;;20.63;14.93;;;19.10;99.90;;;;;;5076079;28;20402;-65
2023/07/12 02:45:16;;;;;;;16.48;12.90;;;19.10;99.90;;;;;;5075936;28;20059;-65
2023/07/12 02:47:42;;;;;;;17.88;13.93;;;19.00;99.90;;;;;;5075950;28;20041;-65
2023/07/12 02:50:08;;;;;;;16.60;13.25;;;18.90;99.90;;;;;;5057995;28;20024;-66
2023/07/12 02:52:34;;;;;;;15.20;13.57;;;18.90;99.90;;;;;;5075897;28;20055;-66
2023/07/12 02:55:00;;;;;;;16.25;12.93;;;19.00;99.90;;;;;;5075673;28;20103;-65
2023/07/12 02:57:26;;;;;;;15.65;12.65;;;19.00;99.90;;;;;;5075703;28;20144;-65
2023/07/12 02:59:52;;;;;;;21.75;12.77;;;19.00;99.90;;;;;;5075706;28;20474;-65
2023/07/12 03:02:18;;;;;;;18.13;13.00;;;19.00;99.90;;;;;;5075656;28;20359;-65
2023/07/12 03:04:44;;;;;;;19.85;13.60;;;19.00;99.90;;;;;;5075483;28;20033;-66
2023/07/12 03:07:10;;;;;;;15.60;13.73;;;19.00;99.90;;;;;;5075541;28;20031;-65
2023/07/12 03:09:36;;;;;;;15.35;13.25;;;18.90;99.90;;;;;;5075227;28;20028;-65
2023/07/12 03:12:03;;;;;;;18.88;13.45;;;18.90;99.90;;;;;;5075455;28;20021;-65
2023/07/12 03:14:29;;;;;;;15.48;13.23;;;18.90;99.90;;;;;;5075500;28;20020;-65
2023/07/12 03:16:55;;;;;;;17.67;13.65;;;18.90;99.90;;;;;;5057493;28;20028;-66
2023/07/12 03:19:22;;;;;;;15.43;13.13;;;18.90;99.90;;;;;;5075415;28;20035;-66
2023/07/12 03:21:48;;;;;;;17.38;13.80;;;19.00;99.90;;;;;;5075208;28;20074;-65
2023/07/12 03:24:14;;;;;;;17.63;14.25;;;18.90;99.90;;;;;;5075059;28;20380;-66
2023/07/12 03:26:40;;;;;;;19.85;15.38;;;18.90;99.90;;;;;;5057246;28;20082;-66
2023/07/12 03:29:06;;;;;;;20.33;13.90;;;19.00;99.90;;;;;;5075214;28;20029;-65
2023/07/12 03:31:32;;;;;;;18.75;13.65;;;19.00;99.90;;;;;;5057174;28;20097;-66
2023/07/12 03:34:00;;;;;;;18.58;13.77;;;19.00;99.90;;;;;;5074895;28;20099;-65
2023/07/12 03:36:28;;;;;;;21.75;14.13;;;19.00;99.90;;;;;;5075053;28;20460;-65
2023/07/12 03:38:55;;;;;;;16.15;14.23;;;19.00;99.90;;;;;;5074834;28;20470;-65
2023/07/12 03:41:22;;;;;;;16.60;13.50;;;19.00;99.90;;;;;;5074868;28;20024;-65
2023/07/12 03:43:48;;;;;;;16.55;13.52;;;19.00;99.90;;;;;;5056934;28;20029;-65
2023/07/12 03:46:15;;;;;;;19.15;13.45;;;19.00;99.90;;;;;;5074647;28;20036;-65
2023/07/12 03:48:41;;;;;;;16.17;14.18;;;19.00;99.90;;;;;;5056901;28;20027;-65
2023/07/12 03:51:08;;;;;;;17.88;14.55;;;19.00;99.90;;;;;;5074658;28;20424;-65
2023/07/12 03:53:35;;;;;;;16.45;14.45;;;19.10;99.90;;;;;;5074770;28;20048;-65
2023/07/12 03:56:01;;;;;;;21.52;14.52;;;19.10;99.90;;;;;;5063052;28;20021;-65
2023/07/12 03:58:30;;;;;;;19.08;14.13;;;19.10;99.90;;;;;;5036734;28;20055;-65
2023/07/12 04:00:56;;;;;;;17.50;14.27;;;19.10;99.90;;;;;;5054571;28;20043;-65
2023/07/12 04:03:22;;;;;;;18.23;15.73;;;19.10;99.90;;;;;;5054641;28;20100;-65
2023/07/12 04:05:51;;;;;;;23.75;15.55;;;19.20;99.90;;;;;;5054369;28;20064;-65
2023/07/12 04:08:17;;;;;;;17.83;14.98;;;19.20;99.90;;;;;;5054529;28;20112;-65
2023/07/12 04:10:43;;;;;;;16.35;14.60;;;19.30;99.90;;;;;;5054131;28;20120;-65
2023/07/12 04:13:09;;;;;;;21.10;14.68;;;19.30;99.90;;;;;;5054410;28;20048;-65
2023/07/12 04:15:36;;;;;;;17.83;14.75;;;19.40;99.90;;;;;;5036646;28;20127;-65
2023/07/12 04:18:03;;;;;;;18.02;13.65;;;19.40;99.90;;;;;;5054413;28;20056;-65
2023/07/12 04:20:30;;;;;;;19.95;14.75;;;19.40;99.90;;;;;;5054292;28;20044;-65
2023/07/12 04:22:56;;;;;;;20.98;15.00;;;19.50;99.90;;;;;;5054210;28;20060;-65
2023/07/12 04:25:22;;;;;;;20.35;14.70;;;19.60;99.90;;;;;;5054263;28;20059;-65
2023/07/12 04:27:48;;;;;;;17.48;14.50;;;19.70;99.90;;;;;;5036403;28;20064;-65
2023/07/12 04:30:16;;;;;;;19.77;14.75;;;19.80;99.90;;;;;;5036432;28;20418;-65
2023/07/12 04:32:43;;;;;;;18.13;14.07;;;19.80;99.90;;;;;;5036351;28;20033;-65
2023/07/12 04:35:10;;;;;;;22.38;15.05;;;19.90;99.90;;;;;;5054173;28;20108;-65
2023/07/12 04:37:36;;;;;;;22.25;15.02;;;20.00;99.90;;;;;;5054173;28;20040;-65
2023/07/12 04:40:03;;;;;;;20.02;15.23;;;20.00;99.90;;;;;;5054203;28;20037;-65
2023/07/12 04:42:29;;;;;;;18.80;14.27;;;20.10;99.90;;;;;;5054186;28;20176;-65
2023/07/12 04:44:55;;;;;;;21.67;15.10;;;20.10;99.90;;;;;;5054028;28;20120;-65
2023/07/12 04:47:21;;;;;;;17.42;13.90;;;20.20;99.90;;;;;;5054131;28;20032;-65
2023/07/12 04:49:47;;;;;;;21.48;14.23;;;20.30;99.90;;;;;;5054050;28;20112;-65
2023/07/12 04:52:13;;;;;;;29.50;15.10;;;20.40;99.90;;;;;;5057614;28;20047;-65
2023/07/12 04:54:40;;;;;;;21.27;14.45;;;20.50;99.90;;;;;;5058241;28;20021;-65
2023/07/12 04:57:07;;;;;;;20.05;13.70;;;20.60;99.90;;;;;;5059899;28;20059;-65
2023/07/12 04:59:33;;;;;;;18.88;13.50;;;20.70;99.90;;;;;;5071169;28;20409;-65
2023/07/12 05:01:59;;;;;;;19.30;14.27;;;20.80;99.90;;;;;;5054100;28;20378;-66
2023/07/12 05:04:25;;;;;;;18.70;14.13;;;20.90;99.90;;;;;;5064274;28;20016;-66
2023/07/12 05:06:53;;;;;;;19.77;14.38;;;20.90;99.90;;;;;;5060768;28;20055;-65
2023/07/12 05:09:20;;;;;;;20.83;14.73;;;21.00;99.90;;;;;;5077916;28;20035;-66
2023/07/12 05:11:47;;;;;;;18.65;14.38;;;21.20;99.90;;;;;;5077704;28;20042;-65
2023/07/12 05:14:13;;;;;;;20.95;15.50;;;21.30;99.90;;;;;;5077728;28;20036;-65
2023/07/12 05:16:39;;;;;;;22.45;13.55;;;21.40;99.90;;;;;;5077670;28;20469;-66
2023/07/12 05:19:05;;;;;;;22.25;14.70;;;21.50;99.90;;;;;;5077682;28;20029;-66
2023/07/12 05:21:31;;;;;;;21.60;13.95;;;21.60;99.90;;;;;;5077409;28;20329;-66
2023/07/12 05:23:57;;;;;;;24.63;14.10;;;21.70;99.90;;;;;;5077477;28;20443;-65
2023/07/12 05:26:23;;;;;;;22.95;15.35;;;21.80;99.90;;;;;;5077138;28;20032;-65
2023/07/12 05:28:48;;;;;;;21.95;13.57;;;21.90;99.90;;;;;;5077804;28;20115;-66
2023/07/12 05:31:15;;;;;;;22.65;14.38;;;22.00;99.90;;;;;;5077893;28;20113;-66
2023/07/12 05:33:43;;;;;;;29.30;16.27;;;22.10;99.90;;;;;;5077938;28;20020;-66
2023/07/12 05:36:09;;;;;;;21.95;13.90;;;22.20;99.90;;;;;;5071379;28;20021;-66
2023/07/12 05:38:35;;;;;;;22.92;14.02;;;22.30;99.90;;;;;;5097596;28;20055;-65
2023/07/12 05:41:02;;;;;;;59.70;16.73;;;22.40;99.90;;;;;;5097906;28;20058;-66
2023/07/12 05:43:28;;;;;;;21.80;14.00;;;22.50;99.90;;;;;;5077013;28;20089;-66
2023/07/12 05:45:58;;;;;;;30.50;17.40;;;22.60;99.90;;;;;;5059649;28;20035;-66
2023/07/12 05:48:24;;;;;;;31.45;16.08;;;22.70;99.90;;;;;;5076901;28;20462;-66
2023/07/12 05:50:52;;;;;;;24.90;15.32;;;22.80;99.90;;;;;;5076746;28;20076;-66
2023/07/12 05:53:18;;;;;;;27.52;13.85;;;22.90;99.90;;;;;;5077106;28;20481;-66
2023/07/12 05:55:44;;;;;;;27.50;15.07;;;23.10;99.90;;;;;;5075895;28;20028;-66
2023/07/12 05:58:11;;;;;;;30.80;15.45;;;23.20;99.90;;;;;;5076298;28;20404;-66
2023/07/12 06:00:38;;;;;;;29.40;15.40;;;23.30;99.90;;;;;;5076665;28;20024;-66
2023/07/12 06:03:05;;;;;;;31.63;15.70;;;23.40;99.90;;;;;;5075037;28;20107;-66
2023/07/12 06:05:32;;;;;;;36.83;16.27;;;23.60;99.90;;;;;;5076539;28;20048;-66
2023/07/12 06:07:58;;;;;;;32.92;15.15;;;23.70;99.90;;;;;;5076434;28;20032;-66
2023/07/12 06:10:32;;;;;;;27.00;14.27;;;23.80;99.90;;;;;;5062339;28;20363;-66
2023/07/12 06:12:58;;;;;;;27.40;15.30;;;24.00;99.90;;;;;;5038846;28;20037;-66
2023/07/12 06:15:24;;;;;;;23.73;12.32;;;24.10;99.90;;;;;;5056425;28;20029;-66
2023/07/12 06:17:50;;;;;;;21.25;13.25;;;24.30;99.90;;;;;;5056201;28;20033;-66
2023/07/12 06:20:16;;;;;;;34.55;14.48;;;24.40;99.90;;;;;;5063879;28;20081;-66
2023/07/12 06:22:42;;;;;;;21.55;13.65;;;24.50;99.90;;;;;;5070267;28;20029;-66
2023/07/12 06:25:10;;;;;;;26.40;14.23;;;24.70;99.90;;;;;;5091214;28;20389;-66
2023/07/12 06:27:35;;;;;;;21.08;12.95;;;24.80;99.90;;;;;;5078996;28;20725;-66
2023/07/12 06:30:02;;;;;;;26.95;13.43;;;25.00;99.90;;;;;;5096631;28;20035;-66
2023/07/12 06:32:28;;;;;;;37.72;13.57;;;25.20;99.90;;;;;;5096140;28;20032;-66
2023/07/12 06:34:54;;;;;;;25.65;13.48;;;25.40;99.90;;;;;;5095972;28;20107;-66
2023/07/12 06:37:22;;;;;;;26.33;12.90;;;25.50;99.90;;;;;;5077923;28;20035;-66
2023/07/12 06:39:48;;;;;;;20.83;12.82;;;25.70;99.90;;;;;;5069710;28;20118;-66
2023/07/12 06:42:14;;;;;;;32.33;12.70;;;25.90;99.90;;;;;;5056440;28;20045;-66
2023/07/12 06:44:40;;;;;;;25.42;13.38;;;26.10;99.90;;;;;;5038657;28;20065;-66
2023/07/12 06:47:06;;;;;;;21.90;12.68;;;26.20;99.90;;;;;;5055967;28;20029;-66
2023/07/12 06:49:32;;;;;;;27.80;12.77;;;26.40;99.70;;;;;;5055595;28;20027;-66
2023/07/12 06:51:58;;;;;;;21.52;10.93;;;26.60;99.00;;;;;;5055842;28;20032;-66
2023/07/12 06:54:24;;;;;;;20.17;11.25;;;26.80;96.00;;;;;;5043689;28;20084;-66
2023/07/12 06:56:50;;;;;;;21.95;9.75;;;27.00;96.40;;;;;;5075839;28;20081;-66
2023/07/12 06:59:16;;;;;;;13.38;8.98;;;27.20;94.50;;;;;;5075427;28;20043;-66
2023/07/12 07:01:41;;;;;;;13.73;8.93;;;27.40;90.00;;;;;;5074513;28;20036;-66
2023/07/12 07:04:07;;;;;;;16.88;9.93;;;27.60;86.30;;;;;;5075909;28;20428;-66
2023/07/12 07:06:33;;;;;;;14.85;9.32;;;27.90;86.90;;;;;;5072424;28;20071;-66
2023/07/12 07:08:59;;;;;;;13.52;9.10;;;28.20;89.30;;;;;;5075774;28;20024;-66
2023/07/12 07:11:25;;;;;;;17.88;9.77;;;28.30;85.90;;;;;;5075552;28;20032;-67
2023/07/12 07:13:51;;;;;;;12.13;8.98;;;28.40;84.60;;;;;;5074516;28;20497;-67
2023/07/12 07:16:19;;;;;;;17.48;9.13;;;28.60;80.80;;;;;;5075079;28;20112;-67
2023/07/12 07:18:45;;;;;;;20.63;9.60;;;28.80;78.20;;;;;;5075937;28;20028;-66
2023/07/12 07:21:10;;;;;;;16.08;8.68;;;29.20;76.40;;;;;;5094512;28;20032;-67
2023/07/12 07:23:36;;;;;;;20.77;8.85;;;29.20;80.10;;;;;;5095160;28;20039;-67
2023/07/12 07:26:04;;;;;;;15.55;8.85;;;29.50;77.20;;;;;;5095278;28;20481;-67
2023/07/12 07:28:30;;;;;;;22.58;9.70;;;29.60;74.80;;;;;;5065911;28;20036;-67
2023/07/12 07:30:58;;;;;;;20.27;8.68;;;29.80;76.30;;;;;;5062611;28;20041;-67
2023/07/12 07:33:25;;;;;;;23.88;9.98;;;30.10;77.70;;;;;;5057118;28;20051;-67
2023/07/12 07:35:51;;;;;;;16.17;9.20;;;30.40;73.90;;;;;;5056710;28;20028;-67
2023/07/12 07:38:17;;;;;;;22.02;9.88;;;30.70;71.90;;;;;;5074617;28;20082;-67
2023/07/12 07:40:46;;;;;;;18.98;9.80;;;31.00;69.90;;;;;;5056466;28;20032;-67
2023/07/12 07:43:17;;;;;;;16.73;9.68;;;31.40;68.20;;;;;;5074445;28;20044;-67
2023/07/12 07:45:48;;;;;;;18.30;9.80;;;31.50;69.50;;;;;;5040483;28;20210;-68
2023/07/12 07:48:18;;;;;;;15.88;9.85;;;31.60;66.80;;;;;;5074230;28;20032;-68
2023/07/12 07:50:49;;;;;;;21.55;10.32;;;31.90;66.20;;;;;;5074314;28;20052;-67
2023/07/12 07:53:19;;;;;;;10.43;8.07;;;32.10;64.20;;;;;;5068717;28;20021;-65
2023/07/12 07:55:51;;;;;;;23.98;10.30;;;32.50;64.40;;;;;;5073494;28;20036;-68
2023/07/12 07:58:22;;;;;;;15.10;8.65;;;32.70;64.30;;;;;;5068666;28;20119;-68
2023/07/12 08:00:53;;;;;;;14.43;8.15;;;33.10;64.00;;;;;;5062907;28;20120;-67
2023/07/12 08:03:27;;;;;;;16.02;8.90;;;33.50;63.90;;;;;;5088111;28;20059;-67
2023/07/12 08:06:08;;;;;;;22.00;9.38;;;33.70;62.00;;;;;;5094527;28;20024;-68
2023/07/12 08:08:41;;;;;;;18.38;9.10;;;33.90;64.70;;;;;;5078292;28;20098;-69
2023/07/12 08:11:12;;;;;;;15.65;8.88;;;34.20;61.00;;;;;;5065585;28;20057;-69
2023/07/12 08:13:46;;;;;;;15.73;8.77;;;34.40;62.30;;;;;;5087287;28;20028;-69
2023/07/12 08:16:19;;;;;;;15.55;9.10;;;34.40;57.50;;;;;;5094123;28;20082;-68
2023/07/12 08:18:51;;;;;;;23.00;10.50;;;34.60;56.00;;;;;;5094163;28;20016;-67
2023/07/12 08:21:22;;;;;;;20.95;9.32;;;34.80;55.90;;;;;;5094033;28;20039;-67
2023/07/12 08:23:52;;;;;;;20.45;10.07;;;35.10;53.30;;;;;;5074229;28;20062;-67
2023/07/12 08:26:20;;;;;;;;;;;35.20;54.70;;;;;;5055473;28;20440;-67
2023/07/12 08:28:50;;;;;;;23.48;9.25;;;35.40;56.00;;;;;;5073052;28;19904;-68
2023/07/12 08:31:20;;;;;;;22.75;10.30;;;35.20;58.60;;;;;;5064505;28;20131;-68
2023/07/12 08:33:56;;;;;;;13.23;8.40;;;35.40;56.70;;;;;;5071017;28;20024;-68
2023/07/12 08:36:26;;;;;;;18.05;8.32;;;35.70;54.30;;;;;;5075998;28;20024;-68
2023/07/12 08:38:56;;;;;;;18.13;9.02;;;35.80;53.40;;;;;;5094136;28;20039;-68
2023/07/12 08:41:27;;;;;;;20.75;10.20;;;35.90;52.30;;;;;;5094240;28;20024;-68
2023/07/12 08:43:57;;;;;;;26.55;10.50;;;36.00;52.50;;;;;;5094119;28;20028;-67
2023/07/12 08:46:30;;;;;;;16.23;8.90;;;36.10;50.50;;;;;;5094400;28;20035;-68
2023/07/12 08:49:02;;;;;;;24.25;9.23;;;36.30;53.20;;;;;;5093909;28;20228;-68
2023/07/12 08:51:35;;;;;;;22.00;8.73;;;36.60;54.30;;;;;;5079544;28;20028;-68
2023/07/12 08:54:05;;;;;;;20.20;9.82;;;37.00;51.10;;;;;;5055679;28;20039;-68
2023/07/12 08:56:34;;;;;;;15.35;9.02;;;37.20;50.80;;;;;;5073736;28;20108;-68
2023/07/12 08:59:10;;;;;;;19.80;9.98;;;37.40;50.50;;;;;;5074072;28;20479;-67
2023/07/12 09:01:54;;;;;;;18.45;10.10;;;37.20;51.00;;;;;;5073671;28;20104;-68
2023/07/12 09:04:31;;;;;;;24.58;9.73;;;36.70;48.30;;;;;;5065938;28;20087;-67
2023/07/12 09:07:04;;;;;;;19.52;9.15;;;36.80;46.20;;;;;;5071988;28;20036;-68
2023/07/12 09:09:39;;;;;;;13.57;7.78;;;36.80;46.90;;;;;;5074069;28;20092;-68
2023/07/12 09:12:34;;;;;;;14.88;6.63;;;36.60;45.70;;;;;;5074052;28;20025;-68
2023/07/12 09:15:12;;;;;;;15.13;6.57;;;36.80;48.30;;;;;;5074098;28;20026;-68
2023/07/12 09:17:47;;;;;;;16.33;7.25;;;36.70;45.00;;;;;;5073921;28;20020;-68
2023/07/12 09:20:27;;;;;;;17.95;7.03;;;36.70;45.80;;;;;;5074290;28;20024;-67
2023/07/12 09:22:59;;;;;;;14.30;7.00;;;37.00;47.20;;;;;;5073702;28;20110;-68
2023/07/12 09:25:38;;;;;;;13.35;7.25;;;37.10;44.40;;;;;;5073851;28;20515;-68
2023/07/12 09:28:15;;;;;;;29.98;14.13;;;37.10;44.20;;;;;;5071697;28;20036;-68
2023/07/12 09:30:43;;;;;;;13.43;7.55;;;37.30;47.10;;;;;;5065630;28;20025;-68
2023/07/12 09:33:49;;;;;;;19.35;7.22;;;37.60;48.20;;;;;;5069474;28;20032;-68
2023/07/12 09:36:18;;;;;;;16.20;6.75;;;37.70;44.20;;;;;;5064497;28;20043;-68
2023/07/12 09:38:49;;;;;;;20.70;7.63;;;37.80;46.80;;;;;;5097644;28;20496;-68
2023/07/12 09:41:23;;;;;;;18.45;7.20;;;38.20;44.90;;;;;;5096959;28;20020;-68
2023/07/12 09:44:02;;;;;;;24.38;8.07;;;38.30;43.60;;;;;;5094874;28;20035;-68
2023/07/12 09:47:07;;;;;;;23.17;8.05;;;38.20;41.50;;;;;;5067399;28;20033;-69
2023/07/12 09:49:56;;;;;;;26.90;7.57;;;38.10;41.80;;;;;;5032626;28;20176;-68
2023/07/12 09:52:49;;;;;;;15.45;6.57;;;38.00;42.20;;;;;;5076225;28;20476;-68
2023/07/12 09:55:43;;;;;;;20.02;7.07;;;37.80;46.80;;;;;;5073613;28;20044;-68
2023/07/12 09:58:37;;;;;;;18.42;6.88;;;38.00;40.80;;;;;;5057214;28;20049;-68
2023/07/12 10:01:24;;;;;;;17.75;6.13;;;38.10;44.90;;;;;;5067989;28;20021;-68
2023/07/12 10:03:57;;;;;;;11.65;6.38;;;38.30;38.90;;;;;;5072209;28;20028;-68
2023/07/12 10:06:58;;;;;;;16.48;6.30;;;37.80;39.60;;;;;;5057841;28;20421;-68
2023/07/12 10:09:34;;;;;;;20.13;6.82;;;38.00;38.10;;;;;;5023312;28;20040;-68
2023/07/12 10:12:27;;;;;;;15.98;6.55;;;37.20;39.00;;;;;;5071390;28;20030;-68
2023/07/12 10:14:56;;;;;;;15.43;4.95;;;37.50;39.80;;;;;;5070995;28;20035;-67
2023/07/12 10:17:36;;;;;;;11.95;5.53;;;37.30;39.20;;;;;;5076180;28;20036;-67
2023/07/12 10:20:04;;;;;;;;;;;36.60;40.20;;;;;;5056663;28;20025;-68
2023/07/12 10:22:41;;;;;;;7.70;4.88;;;37.20;39.80;;;;;;5076114;28;19971;-65
2023/07/12 10:25:28;;;;;;;11.50;6.15;;;36.80;39.60;;;;;;5076094;28;20024;-65
2023/07/12 10:28:10;;;;;;;10.43;5.82;;;36.50;44.80;;;;;;5075206;28;20036;-65
2023/07/12 10:30:41;;;;;;;13.05;5.88;;;36.40;45.00;;;;;;5055592;28;20248;-66
2023/07/12 10:33:46;;;;;;;13.68;6.32;;;36.60;41.40;;;;;;5062714;28;20099;-65
2023/07/12 10:36:26;;;;;;;13.50;6.07;;;36.00;40.50;;;;;;5056007;28;20032;-65
2023/07/12 10:38:55;;;;;;;15.20;6.90;;;35.70;41.90;;;;;;5074079;28;20025;-64
2023/07/12 10:41:36;;;;;;;16.87;6.70;;;35.50;42.80;;;;;;5076377;28;20021;-64
2023/07/12 10:44:12;;;;;;;15.23;6.50;;;35.10;46.00;;;;;;5075605;28;20382;-64
2023/07/12 10:46:46;;;;;;;10.52;5.22;;;34.70;49.40;;;;;;5075426;28;20032;-64
2023/07/12 10:49:18;;;;;;;11.07;6.35;;;34.40;54.30;;;;;;5074843;28;20375;-64
2023/07/12 10:52:15;;;;;;;17.65;6.88;;;34.20;49.80;;;;;;5075692;28;20569;-64
2023/07/12 10:55:04;;;;;;;15.13;7.68;;;34.00;55.90;;;;;;5076307;28;20112;-64
2023/07/12 10:57:46;;;;;;;21.20;7.07;;;33.90;57.80;;;;;;5076054;28;20124;-64
2023/07/12 11:00:26;;;;;;;20.73;7.45;;;33.60;59.10;;;;;;5057334;28;20029;-64
2023/07/12 11:03:19;;;;;;;25.92;7.35;;;33.30;58.60;;;;;;5076329;28;20024;-64
2023/07/12 11:06:04;;;;;;;19.42;8.20;;;33.20;58.90;;;;;;5075786;28;20102;-64
2023/07/12 11:08:32;;;;;;;35.85;9.70;;;33.40;59.50;;;;;;5075199;28;20040;-64
2023/07/12 11:11:24;;;;;;;45.33;9.93;;;33.60;59.70;;;;;;5075100;28;20490;-64
2023/07/12 11:14:05;;;;;;;19.52;7.68;;;33.90;63.30;;;;;;5058810;28;20060;-64
2023/07/12 11:16:44;;;;;;;14.38;6.90;;;33.90;63.90;;;;;;5066709;28;20032;-64
2023/07/12 11:19:35;;;;;;;12.60;7.07;;;33.90;65.40;;;;;;5055781;28;20036;-65
2023/07/12 11:22:30;;;;;;;17.73;7.88;;;34.20;64.90;;;;;;5054826;28;20025;-64
2023/07/12 11:25:21;;;;;;;21.20;7.32;;;34.20;63.70;;;;;;5038867;28;20060;-64
2023/07/12 11:27:47;;;;;;;14.88;7.65;;;34.40;62.90;;;;;;5065914;28;20031;-65
2023/07/12 11:30:26;;;;;;;13.93;7.75;;;34.70;56.80;;;;;;5073704;28;20119;-65
2023/07/12 11:33:07;;;;;;;19.02;8.10;;;35.10;65.90;;;;;;5074171;28;20131;-65
2023/07/12 11:35:44;;;;;;;24.77;8.13;;;35.30;61.30;;;;;;5069557;28;20043;-65
2023/07/12 11:38:15;;;;;;;19.40;8.02;;;35.00;60.40;;;;;;5073558;28;20477;-65
2023/07/12 11:40:41;;;;;;;19.33;8.50;;;35.10;61.70;;;;;;5075047;28;20036;-65
2023/07/12 11:43:22;;;;;;;18.60;8.38;;;35.20;59.90;;;;;;5068383;28;20509;-65
2023/07/12 11:45:55;;;;;;;21.23;9.48;;;35.30;62.80;;;;;;5064982;28;20036;-65
2023/07/12 11:48:23;;;;;;;20.73;8.85;;;35.50;62.60;;;;;;5048021;28;20029;-65
2023/07/12 11:50:51;;;;;;;17.05;8.77;;;35.70;60.00;;;;;;5071268;28;20028;-65
2023/07/12 11:53:20;;;;;;;20.38;8.13;;;35.90;56.70;;;;;;5069851;28;20112;-65
2023/07/12 11:55:52;;;;;;;19.63;8.95;;;35.90;51.60;;;;;;5071894;28;20100;-65
2023/07/12 11:58:27;;;;;;;40.75;10.50;;;35.80;49.80;;;;;;5071828;28;20207;-65
2023/07/12 12:00:58;;;;;;;15.68;7.65;;;36.00;48.00;;;;;;5074156;28;20382;-65
2023/07/12 12:03:28;;;;;;;20.95;8.45;;;36.30;52.10;;;;;;5068519;28;20059;-67
2023/07/12 12:05:55;;;;;;;23.17;9.63;;;36.50;50.70;;;;;;5067074;28;20470;-67
2023/07/12 12:08:27;;;;;;;17.83;9.35;;;36.60;49.90;;;;;;5072845;28;20254;-68
2023/07/12 12:10:54;;;;;;;18.85;10.00;;;36.90;46.70;;;;;;5070590;28;20020;-67
2023/07/12 12:13:20;;;;;;;13.95;8.35;;;36.50;47.10;;;;;;5070940;28;20389;-67
2023/07/12 12:16:01;;;;;;;22.00;10.45;;;36.30;58.10;;;;;;5067274;28;20020;-67
2023/07/12 12:18:28;;;;;;;20.02;10.55;;;36.10;50.10;;;;;;5066472;28;20059;-65
2023/07/12 12:20:58;;;;;;;26.52;10.25;;;36.20;48.60;;;;;;5071600;28;20028;-67
2023/07/12 12:23:30;;;;;;;;;;;36.50;49.10;;;;;;5070036;28;20024;-67
2023/07/12 12:26:01;;;;;;;10.57;7.35;;;36.60;46.70;;;;;;5072485;28;19908;-65
2023/07/12 12:28:31;;;;;;;14.35;7.80;;;36.90;48.10;;;;;;5071432;28;20094;-65
2023/07/12 12:30:57;;;;;;;;;;;37.40;46.80;;;;;;5060298;28;20051;-65
2023/07/12 12:33:26;;;;;;;18.52;7.93;;;37.90;47.30;;;;;;5061048;28;19908;-65
2023/07/12 12:36:04;;;;;;;13.90;7.22;;;38.00;45.50;;;;;;5060556;28;20111;-67
2023/07/12 12:38:36;;;;;;;12.80;6.88;;;38.30;40.60;;;;;;5059235;28;20028;-66
2023/07/12 12:41:17;;;;;;;18.40;7.70;;;38.30;36.60;;;;;;5058816;28;20482;-66
2023/07/12 12:44:06;;;;;;;13.88;7.00;;;37.90;38.50;;;;;;5062643;28;20551;-66
2023/07/12 12:46:32;;;;;;;14.88;6.45;;;38.40;37.40;;;;;;5073598;28;20123;-66
2023/07/12 12:48:58;;;;;;;16.15;7.07;;;38.50;34.90;;;;;;5068925;28;20068;-66
2023/07/12 12:51:24;;;;;;;12.50;6.45;;;38.90;36.20;;;;;;5071118;28;20486;-66